Time;durP1;ratioP1;P1;durP2;ratioP2;P2;SDS_P1;SDS_P2;PMS_P1;PMS_P2;Temp;Humidity;BMP_temperature;BMP_pressure;BME280_temperature;BME280_humidity;BME280_pressure;Samples;Min_cycle;Max_cycle;Signal;HPM_P1;HPM_P2
2023/05/26 00:00:04;;;;;;;1.90;1.70;;;;;;;8.21;100.00;101601.38;4956551;28;20216;-76
2023/05/26 00:02:30;;;;;;;11.57;1.40;;;;;;;8.18;100.00;101604.63;4973760;28;20209;-76
2023/05/26 00:04:58;;;;;;;10.20;2.90;;;;;;;8.15;100.00;101606.00;4973971;28;20269;-75
2023/05/26 00:07:24;;;;;;;3.20;1.50;;;;;;;8.14;100.00;101607.06;4974717;28;20629;-74
2023/05/26 00:09:49;;;;;;;1.03;0.47;;;;;;;8.11;100.00;101602.16;4974755;28;20321;-76
2023/05/26 00:12:14;;;;;;;5.10;2.07;;;;;;;8.09;100.00;101600.78;4973516;28;20201;-76
2023/05/26 00:14:40;;;;;;;14.10;0.97;;;;;;;8.09;100.00;101607.03;4973823;28;20269;-75
2023/05/26 00:17:06;;;;;;;1.43;1.33;;;;;;;8.08;100.00;101608.13;4973358;28;20664;-76
2023/05/26 00:19:35;;;;;;;8.10;2.70;;;;;;;8.06;100.00;101605.66;4973748;28;20549;-75
2023/05/26 00:22:00;;;;;;;1.10;1.10;;;;;;;8.01;100.00;101611.09;4973351;28;20336;-75
2023/05/26 00:24:26;;;;;;;0.67;0.57;;;;;;;8.00;100.00;101604.03;4973664;28;20276;-75
2023/05/26 00:26:51;;;;;;;1.13;0.93;;;;;;;8.00;100.00;101605.94;4972823;28;20205;-75
2023/05/26 00:29:17;;;;;;;6.50;2.30;;;;;;;7.97;100.00;101604.56;4973559;28;20189;-75
2023/05/26 00:31:42;;;;;;;9.83;1.90;;;;;;;7.90;100.00;101603.16;4956159;28;20221;-76
2023/05/26 00:34:08;;;;;;;1.13;1.03;;;;;;;7.86;100.00;101621.91;4973580;28;20237;-76
2023/05/26 00:36:33;;;;;;;6.70;2.00;;;;;;;7.82;100.00;101603.66;4973211;28;20682;-76
2023/05/26 00:38:58;;;;;;;13.47;1.43;;;;;;;7.81;100.00;101615.59;4955531;28;20564;-76
2023/05/26 00:41:24;;;;;;;1.87;1.83;;;;;;;7.79;100.00;101613.16;4972927;28;20268;-76
2023/05/26 00:43:51;;;;;;;1.70;1.60;;;;;;;7.81;100.00;101610.16;4973190;28;20664;-76
2023/05/26 00:46:16;;;;;;;1.47;1.40;;;;;;;7.78;100.00;101611.53;4973009;28;20186;-76
2023/05/26 00:48:41;;;;;;;6.67;2.90;;;;;;;7.75;100.00;101607.44;4972518;28;20181;-77
2023/05/26 00:51:07;;;;;;;4.23;2.87;;;;;;;7.74;100.00;101613.94;4973069;28;20186;-77
2023/05/26 00:53:34;;;;;;;2.73;2.53;;;;;;;7.73;100.00;101616.94;4972913;28;20324;-76
2023/05/26 00:56:00;;;;;;;1.17;1.17;;;;;;;7.75;100.00;101614.78;4972572;28;20652;-77
2023/05/26 00:58:26;;;;;;;2.00;1.37;;;;;;;7.71;100.00;101616.38;4972459;28;20189;-75
2023/05/26 01:00:51;;;;;;;0.80;0.80;;;;;;;7.67;100.00;101613.38;4972784;28;20190;-74
2023/05/26 01:03:18;;;;;;;0.53;0.53;;;;;;;7.63;100.00;101606.81;4955403;28;20802;-76
2023/05/26 01:05:43;;;;;;;13.90;4.33;;;;;;;7.59;100.00;101610.31;4972737;28;20182;-76
2023/05/26 01:08:08;;;;;;;1.17;1.07;;;;;;;7.58;100.00;101614.94;4971827;28;20232;-76
2023/05/26 01:10:34;;;;;;;4.10;1.50;;;;;;;7.55;100.00;101601.88;4972383;28;20190;-75
2023/05/26 01:13:05;;;;;;;4.97;1.93;;;;;;;7.54;100.00;101607.59;4972553;28;20517;-76
2023/05/26 01:15:36;;;;;;;3.03;1.30;;;;;;;7.49;100.00;101610.25;4972586;28;20189;-74
2023/05/26 01:18:20;;;;;;;4.33;1.80;;;;;;;7.47;100.00;101614.06;4972049;28;20189;-76
2023/05/26 01:20:51;;;;;;;25.83;1.80;;;;;;;7.44;100.00;101611.03;4955241;28;20201;-76
2023/05/26 01:23:35;;;;;;;1.13;0.50;;;;;;;7.42;100.00;101611.31;4972336;28;20295;-76
2023/05/26 01:26:25;;;;;;;0.47;0.37;;;;;;;7.39;100.00;101611.84;4972391;28;20863;-76
2023/05/26 01:28:55;;;;;;;0.93;0.47;;;;;;;7.37;100.00;101610.44;4972001;28;20668;-75
2023/05/26 01:31:20;;;;;;;17.10;5.43;;;;;;;7.34;100.00;101619.13;4972068;28;20185;-76
2023/05/26 01:33:46;;;;;;;5.73;1.90;;;;;;;7.31;100.00;101615.03;4972029;28;20527;-76
2023/05/26 01:36:11;;;;;;;1.60;1.50;;;;;;;7.33;100.00;101620.22;4972112;28;20204;-75
2023/05/26 01:38:37;;;;;;;8.30;1.80;;;;;;;7.30;100.00;101628.88;4971918;28;20241;-77
2023/05/26 01:41:11;;;;;;;3.97;1.37;;;;;;;7.28;100.00;101623.72;4973021;28;20189;-76
2023/05/26 01:43:51;;;;;;;3.77;1.33;;;;;;;7.27;100.00;101618.53;4972579;28;20291;-77
2023/05/26 01:46:31;;;;;;;0.50;0.50;;;;;;;7.23;100.00;101614.69;4972655;28;20190;-76
2023/05/26 01:49:00;;;;;;;13.67;2.13;;;;;;;7.20;100.00;101623.38;4972270;28;20652;-76
2023/05/26 01:51:32;;;;;;;0.67;0.67;;;;;;;7.16;100.00;101615.72;4972530;28;20182;-75
2023/05/26 01:54:00;;;;;;;0.10;0.10;;;;;;;7.11;100.00;101615.69;4955025;28;20190;-76
2023/05/26 01:56:26;;;;;;;17.33;2.23;;;;;;;7.10;100.00;101618.69;4972345;28;20312;-76
2023/05/26 01:58:53;;;;;;;0.97;0.97;;;;;;;7.04;100.00;101609.66;4971934;28;20232;-76
2023/05/26 02:01:18;;;;;;;3.93;1.67;;;;;;;7.05;100.00;101618.63;4972514;28;20209;-77
2023/05/26 02:03:43;;;;;;;5.10;1.40;;;;;;;7.02;100.00;101621.88;4972409;28;20229;-76
2023/05/26 02:06:09;;;;;;;4.17;2.70;;;;;;;6.98;100.00;101618.84;4972393;28;20554;-77
2023/05/26 02:08:36;;;;;;;5.73;2.50;;;;;;;6.97;100.00;101614.50;4971915;28;20675;-76
2023/05/26 02:11:01;;;;;;;20.43;1.70;;;;;;;6.97;100.00;101613.69;4954933;28;20189;-76
2023/05/26 02:13:26;;;;;;;14.07;3.30;;;;;;;6.92;100.00;101619.88;4954959;28;20205;-76
2023/05/26 02:15:52;;;;;;;18.43;3.07;;;;;;;6.93;100.00;101624.22;4972228;28;20185;-76
2023/05/26 02:18:17;;;;;;;1.60;1.40;;;;;;;6.95;100.00;101626.69;4954711;28;20213;-77
2023/05/26 02:20:42;;;;;;;3.30;1.60;;;;;;;6.95;100.00;101629.41;4955698;28;20190;-76
2023/05/26 02:23:07;;;;;;;5.90;1.63;;;;;;;6.91;100.00;101633.72;4975915;28;20201;-76
2023/05/26 02:25:33;;;;;;;0.47;0.40;;;;;;;6.87;100.00;101633.41;4975945;28;20186;-76
2023/05/26 02:27:58;;;;;;;6.57;0.77;;;;;;;6.86;100.00;101626.34;4975550;28;20216;-76
2023/05/26 02:30:23;;;;;;;8.97;1.80;;;;;;;6.82;100.00;101625.22;4976124;28;20703;-75
2023/05/26 02:32:48;;;;;;;5.97;1.87;;;;;;;6.79;100.00;101626.53;4958746;28;20348;-77
2023/05/26 02:35:14;;;;;;;15.53;2.00;;;;;;;6.79;100.00;101631.16;4975739;28;20552;-75
2023/05/26 02:37:41;;;;;;;14.20;3.20;;;;;;;6.76;100.00;101635.19;4975206;28;20236;-76
2023/05/26 02:40:08;;;;;;;6.93;2.03;;;;;;;6.75;100.00;101638.19;4975654;28;20182;-76
2023/05/26 02:42:34;;;;;;;1.30;1.20;;;;;;;6.74;100.00;101640.06;4975736;28;20244;-75
2023/05/26 02:44:59;;;;;;;1.77;1.70;;;;;;;6.74;100.00;101644.69;4975726;28;20221;-76
2023/05/26 02:47:25;;;;;;;7.80;2.83;;;;;;;6.70;100.00;101643.56;4975289;28;20210;-75
2023/05/26 02:49:50;;;;;;;1.80;1.70;;;;;;;6.70;100.00;101640.84;4958415;28;20189;-76
2023/05/26 02:52:16;;;;;;;1.30;1.17;;;;;;;6.70;100.00;101635.41;4975176;28;20212;-76
2023/05/26 02:54:41;;;;;;;19.43;2.60;;;;;;;6.62;100.00;101646.72;4975560;28;20209;-77
2023/05/26 02:57:06;;;;;;;3.40;2.33;;;;;;;6.59;100.00;101644.53;4957793;28;20182;-77
2023/05/26 02:59:31;;;;;;;10.20;1.90;;;;;;;6.54;100.00;101648.84;4975894;28;20189;-76
2023/05/26 03:01:57;;;;;;;1.93;1.50;;;;;;;6.53;100.00;101635.50;4975331;28;20245;-76
2023/05/26 03:04:22;;;;;;;4.20;1.40;;;;;;;6.50;100.00;101644.16;4975524;28;20178;-77
2023/05/26 03:06:47;;;;;;;35.87;3.03;;;;;;;6.49;100.00;101637.91;4975003;28;20198;-76
2023/05/26 03:09:12;;;;;;;8.27;2.40;;;;;;;6.50;100.00;101644.97;4975517;28;20213;-76
2023/05/26 03:11:38;;;;;;;4.33;0.83;;;;;;;6.53;100.00;101643.66;4975309;28;20679;-76
2023/05/26 03:14:03;;;;;;;0.80;0.37;;;;;;;6.49;100.00;101647.94;4975161;28;20213;-75
2023/05/26 03:16:28;;;;;;;2.30;0.57;;;;;;;6.53;100.00;101649.91;4975111;28;20186;-77
2023/05/26 03:18:54;;;;;;;0.97;0.93;;;;;;;6.54;100.00;101646.13;4957751;28;20268;-76
2023/05/26 03:21:20;;;;;;;12.20;2.20;;;;;;;6.51;100.00;101652.06;4975250;28;20182;-76
2023/05/26 03:23:45;;;;;;;6.83;1.50;;;;;;;6.50;100.00;101658.53;4975366;28;20181;-76
2023/05/26 03:26:11;;;;;;;2.37;2.27;;;;;;;6.53;100.00;101655.34;4975161;28;21458;-76
2023/05/26 03:28:36;;;;;;;0.83;0.83;;;;;;;6.51;100.00;101657.50;4975230;28;20273;-75
2023/05/26 03:31:02;;;;;;;0.00;0.00;;;;;;;6.53;100.00;101652.63;4975250;28;20556;-76
2023/05/26 03:33:28;;;;;;;2.20;2.10;;;;;;;6.56;100.00;101667.59;4975216;28;20219;-77
2023/05/26 03:35:54;;;;;;;2.97;2.70;;;;;;;6.55;100.00;101668.66;4975260;28;20186;-77
2023/05/26 03:38:19;;;;;;;0.07;0.07;;;;;;;6.52;100.00;101670.00;4974993;28;20188;-77
2023/05/26 03:40:44;;;;;;;1.40;1.37;;;;;;;6.55;100.00;101665.94;4975837;28;20596;-76
2023/05/26 03:43:10;;;;;;;0.10;0.10;;;;;;;6.55;100.00;101672.19;4975819;28;20216;-77
2023/05/26 03:45:36;;;;;;;0.00;0.00;;;;;;;6.59;100.00;101666.25;4976591;28;20237;-75
2023/05/26 03:48:01;;;;;;;5.30;2.17;;;;;;;6.61;100.00;101666.81;4974467;28;20201;-75
2023/05/26 03:50:26;;;;;;;0.17;0.17;;;;;;;6.65;100.00;101671.47;4975574;28;20679;-76
2023/05/26 03:52:52;;;;;;;0.00;0.00;;;;;;;6.63;100.00;101668.19;4975454;28;20296;-76
2023/05/26 03:55:17;;;;;;;2.17;2.00;;;;;;;6.65;100.00;101673.34;4958391;28;20277;-75
2023/05/26 03:57:43;;;;;;;0.00;0.00;;;;;;;6.64;100.00;101671.72;4957936;28;20640;-77
2023/05/26 04:00:10;;;;;;;0.20;0.20;;;;;;;6.67;100.00;101677.50;4975355;28;20657;-77
2023/05/26 04:02:35;;;;;;;0.23;0.23;;;;;;;6.67;100.00;101682.91;4975302;28;20704;-75
2023/05/26 04:05:02;;;;;;;0.87;0.87;;;;;;;6.69;100.00;101672.63;4975409;28;20276;-81
2023/05/26 04:07:27;;;;;;;0.30;0.27;;;;;;;6.75;100.00;101681.63;4974181;28;20220;-81
2023/05/26 04:09:52;;;;;;;0.07;0.07;;;;;;;6.74;100.00;101680.81;4957066;28;20747;-83
2023/05/26 04:12:18;;;;;;;0.83;0.83;;;;;;;6.76;100.00;101684.09;4974358;28;20209;-82
2023/05/26 04:14:43;;;;;;;0.00;0.00;;;;;;;6.77;100.00;101682.19;4974362;28;20173;-82
2023/05/26 04:17:08;;;;;;;1.33;0.90;;;;;;;6.83;100.00;101690.16;4973831;28;20181;-80
2023/05/26 04:19:34;;;;;;;0.00;0.00;;;;;;;6.84;100.00;101690.97;4974511;28;20210;-77
2023/05/26 04:21:59;;;;;;;1.00;0.20;;;;;;;6.91;100.00;101704.34;4974412;28;20198;-76
2023/05/26 04:24:26;;;;;;;0.90;0.50;;;;;;;6.95;100.00;101698.16;4956795;28;20182;-75
2023/05/26 04:26:52;;;;;;;0.83;0.83;;;;;;;7.00;100.00;101695.47;4973760;28;20205;-75
2023/05/26 04:29:18;;;;;;;2.17;0.83;;;;;;;7.01;100.00;101690.88;4974162;28;20185;-77
2023/05/26 04:31:44;;;;;;;1.20;1.10;;;;;;;7.06;100.00;101705.31;4974118;28;20309;-75
2023/05/26 04:34:10;;;;;;;0.67;0.67;;;;;;;7.09;100.00;101693.13;4956594;28;20182;-76
2023/05/26 04:36:38;;;;;;;3.60;3.30;;;;;;;7.20;100.00;101704.91;4956452;28;20185;-77
2023/05/26 04:39:05;;;;;;;0.60;0.60;;;;;;;7.24;100.00;101696.00;4956091;28;20216;-77
2023/05/26 04:41:32;;;;;;;5.47;2.33;;;;;;;7.24;100.00;101717.72;4956149;28;20252;-75
2023/05/26 04:43:58;;;;;;;0.00;0.00;;;;;;;7.29;100.00;101716.94;4973204;28;20727;-76
2023/05/26 04:46:23;;;;;;;0.33;0.33;;;;;;;7.36;100.00;101714.81;4956440;28;20182;-77
2023/05/26 04:48:49;;;;;;;8.50;1.23;;;;;;;7.38;100.00;101718.13;4973713;28;20189;-77
2023/05/26 04:51:14;;;;;;;0.53;0.37;;;;;;;7.37;100.00;101724.63;4973551;28;20872;-77
2023/05/26 04:53:40;;;;;;;1.53;1.43;;;;;;;7.42;100.00;101717.34;4973502;28;20289;-76
2023/05/26 04:56:06;;;;;;;0.00;0.00;;;;;;;7.44;100.00;101722.53;4956299;28;20535;-77
2023/05/26 04:58:36;;;;;;;2.13;0.73;;;;;;;7.43;100.00;101723.59;4973674;28;20770;-77
2023/05/26 05:01:02;;;;;;;1.33;1.33;;;;;;;7.43;100.00;101723.59;4956569;28;20272;-76
2023/05/26 05:03:29;;;;;;;0.10;0.10;;;;;;;7.45;100.00;101718.72;4973923;28;20201;-76
2023/05/26 05:05:54;;;;;;;1.00;1.00;;;;;;;7.50;100.00;101715.22;4974006;28;20574;-76
2023/05/26 05:08:19;;;;;;;0.20;0.20;;;;;;;7.55;100.00;101723.44;4956229;28;20241;-77
2023/05/26 05:10:45;;;;;;;0.60;0.50;;;;;;;7.57;100.00;101719.38;4973057;28;20672;-85
2023/05/26 05:13:10;;;;;;;0.47;0.47;;;;;;;7.57;100.00;101727.53;4955537;28;20213;-76
2023/05/26 05:15:36;;;;;;;1.13;1.13;;;;;;;7.63;100.00;101722.94;4956597;28;20193;-84
2023/05/26 05:18:02;;;;;;;0.10;0.10;;;;;;;7.65;100.00;101727.03;4972444;28;20553;-77
2023/05/26 05:20:27;;;;;;;0.00;0.00;;;;;;;7.70;100.00;101727.09;4940617;28;20205;-76
2023/05/26 05:22:53;;;;;;;5.97;2.90;;;;;;;7.65;100.00;101737.91;4956205;28;20209;-76
2023/05/26 05:25:18;;;;;;;11.43;2.03;;;;;;;7.70;100.00;101737.97;4974468;28;20185;-77
2023/05/26 05:27:44;;;;;;;0.00;0.00;;;;;;;7.71;100.00;101738.78;4939043;28;20218;-76
2023/05/26 05:30:11;;;;;;;13.00;1.40;;;;;;;7.79;100.00;101740.19;4955413;28;20192;-76
2023/05/26 05:32:36;;;;;;;0.17;0.17;;;;;;;7.90;100.00;101742.72;4956028;28;20640;-77
2023/05/26 05:35:02;;;;;;;0.00;0.00;;;;;;;7.96;100.00;101738.97;4974031;28;20182;-78
2023/05/26 05:37:28;;;;;;;0.00;0.00;;;;;;;7.94;100.00;101745.75;4973338;28;20280;-77
2023/05/26 05:39:53;;;;;;;0.90;0.90;;;;;;;8.06;100.00;101741.75;4956586;28;20582;-76
2023/05/26 05:42:20;;;;;;;4.80;2.17;;;;;;;7.89;100.00;101749.25;4973723;28;20213;-76
2023/05/26 05:44:46;;;;;;;8.23;0.47;;;;;;;7.69;100.00;101747.22;4956910;28;20194;-77
2023/05/26 05:47:11;;;;;;;1.27;1.20;;;;;;;7.80;100.00;101755.44;4955595;28;20308;-78
2023/05/26 05:49:36;;;;;;;0.33;0.33;;;;;;;8.03;100.00;101757.78;4956517;28;20189;-78
2023/05/26 05:52:02;;;;;;;0.30;0.13;;;;;;;7.99;100.00;101754.78;4956247;28;20292;-77
2023/05/26 05:54:28;;;;;;;0.00;0.00;;;;;;;8.19;100.00;101756.00;4940266;28;20190;-76
2023/05/26 05:56:54;;;;;;;0.73;0.73;;;;;;;8.20;100.00;101752.19;4973516;28;20181;-78
2023/05/26 05:59:20;;;;;;;21.80;1.30;;;;;;;8.01;100.00;101760.78;4940461;28;20195;-77
2023/05/26 06:01:45;;;;;;;0.00;0.00;;;;;;;8.20;100.00;101763.88;4973583;28;20585;-78
2023/05/26 06:04:10;;;;;;;0.67;0.50;;;;;;;8.10;100.00;101755.69;4973611;28;20668;-76
2023/05/26 06:06:36;;;;;;;0.00;0.00;;;;;;;8.08;100.00;101763.25;4955914;28;20181;-77
2023/05/26 06:09:01;;;;;;;2.10;1.27;;;;;;;8.09;100.00;101761.34;4972896;28;20233;-77
2023/05/26 06:11:26;;;;;;;0.00;0.00;;;;;;;8.10;100.00;101757.56;4973502;28;20201;-77
2023/05/26 06:13:52;;;;;;;0.00;0.00;;;;;;;8.28;100.00;101765.31;4956137;28;20185;-76
2023/05/26 06:16:17;;;;;;;0.40;0.40;;;;;;;8.43;100.00;101770.06;4972724;28;20185;-76
2023/05/26 06:18:42;;;;;;;2.23;1.47;;;;;;;8.34;100.00;101770.53;4973302;28;20197;-77
2023/05/26 06:21:08;;;;;;;0.00;0.00;;;;;;;8.35;100.00;101774.91;4973053;28;20247;-76
2023/05/26 06:23:33;;;;;;;0.00;0.00;;;;;;;8.48;100.00;101776.34;4956169;28;20234;-76
2023/05/26 06:25:58;;;;;;;1.33;1.23;;;;;;;8.64;100.00;101774.50;4970657;28;20205;-77
2023/05/26 06:28:23;;;;;;;0.00;0.00;;;;;;;8.72;100.00;101784.09;4947533;28;20296;-76
2023/05/26 06:30:49;;;;;;;2.33;2.13;;;;;;;8.78;100.00;101781.09;4974736;28;20281;-78
2023/05/26 06:33:14;;;;;;;0.00;0.00;;;;;;;8.83;100.00;101772.16;4974473;28;20224;-78
2023/05/26 06:35:39;;;;;;;0.73;0.73;;;;;;;8.87;100.00;101779.50;4974585;28;20194;-76
2023/05/26 06:38:06;;;;;;;0.20;0.20;;;;;;;8.91;100.00;101780.59;4973421;28;20306;-78
2023/05/26 06:40:32;;;;;;;6.70;1.57;;;;;;;8.83;100.00;101783.06;4956885;28;20629;-76
2023/05/26 06:42:57;;;;;;;17.70;6.27;;;;;;;8.64;100.00;101788.94;4973876;28;20206;-77
2023/05/26 06:45:22;;;;;;;0.00;0.00;;;;;;;8.78;100.00;101783.81;4973806;28;20265;-77
2023/05/26 06:47:48;;;;;;;0.07;0.07;;;;;;;8.90;100.00;101784.44;4956160;28;20221;-76
2023/05/26 06:50:13;;;;;;;8.40;1.60;;;;;;;8.76;100.00;101786.00;4973605;28;20192;-78
2023/05/26 06:52:39;;;;;;;3.30;1.00;;;;;;;8.75;100.00;101795.25;4973368;28;20217;-78
2023/05/26 06:55:05;;;;;;;0.00;0.00;;;;;;;8.87;100.00;101797.78;4955623;28;20208;-78
2023/05/26 06:57:30;;;;;;;5.10;1.07;;;;;;;8.85;100.00;101791.78;4955596;28;20198;-78
2023/05/26 06:59:55;;;;;;;0.00;0.00;;;;;;;8.98;100.00;101795.91;4956166;28;20575;-78
2023/05/26 07:02:21;;;;;;;0.10;0.10;;;;;;;9.05;100.00;101804.66;4973100;28;20314;-76
2023/05/26 07:04:46;;;;;;;0.23;0.23;;;;;;;9.22;100.00;101797.06;4972901;28;20233;-78
2023/05/26 07:07:12;;;;;;;0.00;0.00;;;;;;;9.24;100.00;101800.31;4956270;28;20224;-77
2023/05/26 07:09:37;;;;;;;0.83;0.77;;;;;;;9.44;100.00;101794.94;4976319;28;20193;-76
2023/05/26 07:12:03;;;;;;;1.03;0.50;;;;;;;9.36;100.00;101795.44;4958831;28;20216;-78
2023/05/26 07:14:28;;;;;;;3.57;1.37;;;;;;;9.16;100.00;101792.69;4976557;28;20189;-77
2023/05/26 07:16:54;;;;;;;1.33;0.20;;;;;;;9.24;100.00;101795.69;4975654;28;20190;-77
2023/05/26 07:19:19;;;;;;;1.20;1.20;;;;;;;9.56;100.00;101810.25;4976099;28;20196;-76
2023/05/26 07:21:45;;;;;;;1.17;1.17;;;;;;;9.66;100.00;101805.59;4976492;28;20202;-77
2023/05/26 07:24:10;;;;;;;0.00;0.00;;;;;;;9.75;99.59;101805.88;4975680;28;20190;-78
2023/05/26 07:26:36;;;;;;;3.30;1.53;;;;;;;9.71;98.89;101810.25;4975790;28;20679;-78
2023/05/26 07:29:01;;;;;;;0.10;0.10;;;;;;;9.65;98.80;101805.84;4976013;28;20200;-77
2023/05/26 07:31:26;;;;;;;5.80;3.10;;;;;;;9.83;97.92;101817.06;4975432;28;20185;-77
2023/05/26 07:33:52;;;;;;;3.93;0.70;;;;;;;10.06;98.06;101815.69;4976107;28;20265;-77
2023/05/26 07:36:17;;;;;;;3.30;1.77;;;;;;;10.08;96.87;101809.97;4976263;28;20281;-78
2023/05/26 07:38:42;;;;;;;4.03;2.10;;;;;;;10.18;97.17;101809.97;4975806;28;20182;-77
2023/05/26 07:41:08;;;;;;;2.00;1.90;;;;;;;10.46;96.88;101811.31;4958605;28;20198;-75
2023/05/26 07:43:33;;;;;;;4.27;3.87;;;;;;;10.37;94.61;101808.31;4976051;28;20209;-77
2023/05/26 07:45:59;;;;;;;1.97;1.60;;;;;;;10.26;93.58;101806.69;4958023;28;20221;-76
2023/05/26 07:48:25;;;;;;;0.00;0.00;;;;;;;10.38;92.93;101795.47;4975077;28;20652;-76
2023/05/26 07:50:50;;;;;;;10.40;3.63;;;;;;;10.59;93.13;101798.97;4975486;28;20220;-78
2023/05/26 07:53:16;;;;;;;0.73;0.73;;;;;;;10.73;91.65;101794.56;4957174;28;20821;-77
2023/05/26 07:55:41;;;;;;;6.23;2.83;;;;;;;10.97;92.01;101797.44;4958230;28;20256;-78
2023/05/26 07:58:09;;;;;;;0.00;0.00;;;;;;;11.01;90.64;101790.34;4975220;28;20649;-78
2023/05/26 08:00:35;;;;;;;0.00;0.00;;;;;;;10.88;89.39;101788.22;4975020;28;20182;-75
2023/05/26 08:03:00;;;;;;;0.07;0.07;;;;;;;10.79;89.63;101792.63;4957431;28;20220;-78
2023/05/26 08:05:26;;;;;;;0.93;0.77;;;;;;;11.07;89.97;101793.84;4975426;28;20186;-78
2023/05/26 08:07:52;;;;;;;0.00;0.00;;;;;;;10.99;88.37;101784.31;4974521;28;20216;-75
2023/05/26 08:10:18;;;;;;;1.47;1.47;;;;;;;11.24;88.67;101791.56;4975121;28;20581;-78
2023/05/26 08:12:44;;;;;;;5.00;0.60;;;;;;;11.44;88.27;101796.94;4957811;28;20213;-76
2023/05/26 08:15:16;;;;;;;0.00;0.00;;;;;;;11.49;86.57;101785.94;4974976;28;20205;-77
2023/05/26 08:17:42;;;;;;;0.00;0.00;;;;;;;11.56;86.45;101788.34;4974806;28;20189;-78
2023/05/26 08:20:08;;;;;;;3.07;1.23;;;;;;;11.47;85.11;101779.13;4975468;28;20181;-78
2023/05/26 08:22:34;;;;;;;7.83;1.10;;;;;;;11.22;84.85;101785.56;4974993;28;20260;-78
2023/05/26 08:24:59;;;;;;;0.00;0.00;;;;;;;11.37;85.29;101781.91;4976070;28;20195;-76
2023/05/26 08:27:24;;;;;;;6.33;1.73;;;;;;;11.51;86.15;101788.38;4974891;28;20213;-76
2023/05/26 08:29:50;;;;;;;0.00;0.00;;;;;;;11.80;86.74;101785.72;4957590;28;20202;-76
2023/05/26 08:32:15;;;;;;;1.70;0.33;;;;;;;11.79;84.67;101773.97;4974200;28;20222;-77
2023/05/26 08:34:42;;;;;;;1.37;1.27;;;;;;;11.91;83.82;101782.63;4956898;28;20236;-76
2023/05/26 08:37:08;;;;;;;0.00;0.00;;;;;;;11.85;83.14;101781.03;4973905;28;20182;-76
2023/05/26 08:39:34;;;;;;;1.30;1.20;;;;;;;11.89;82.54;101776.63;4974154;28;20645;-75
2023/05/26 08:42:08;;;;;;;0.07;0.07;;;;;;;12.04;81.75;101778.41;4956488;28;20214;-75
2023/05/26 08:44:34;;;;;;;2.20;0.97;;;;;;;12.13;81.04;101776.66;4973873;28;20252;-77
2023/05/26 08:47:02;;;;;;;0.00;0.00;;;;;;;12.07;80.43;101777.00;4973299;28;20209;-76
2023/05/26 08:49:34;;;;;;;1.53;1.17;;;;;;;12.29;81.75;101779.25;4973726;28;20214;-75
2023/05/26 08:52:07;;;;;;;0.03;0.03;;;;;;;12.36;80.99;101771.50;4973752;28;20259;-76
2023/05/26 08:54:32;;;;;;;1.00;1.00;;;;;;;12.53;81.24;101771.84;4973884;28;20649;-76
2023/05/26 08:56:59;;;;;;;4.13;0.43;;;;;;;12.30;79.11;101764.47;4955521;28;20193;-76
2023/05/26 08:59:28;;;;;;;0.00;0.00;;;;;;;12.16;80.25;101772.53;4973453;28;20190;-76
2023/05/26 09:01:53;;;;;;;0.10;0.10;;;;;;;12.34;80.85;101771.81;4956027;28;20205;-76
2023/05/26 09:04:19;;;;;;;1.83;1.27;;;;;;;12.36;79.34;101763.28;4973402;28;20189;-77
2023/05/26 09:06:47;;;;;;;4.43;0.13;;;;;;;12.14;78.71;101767.31;4973227;28;20213;-76
2023/05/26 09:09:13;;;;;;;0.10;0.10;;;;;;;12.23;79.21;101767.53;4973385;28;20584;-76
2023/05/26 09:11:43;;;;;;;4.33;1.63;;;;;;;12.29;80.27;101771.84;4956663;28;20649;-75
2023/05/26 09:14:11;;;;;;;0.60;0.47;;;;;;;12.17;80.04;101763.22;4974224;28;20700;-76
2023/05/26 09:16:37;;;;;;;0.00;0.00;;;;;;;12.29;80.41;101766.34;4973933;28;20186;-76
2023/05/26 09:19:03;;;;;;;11.97;1.57;;;;;;;12.56;80.17;101765.78;4973913;28;20223;-77
2023/05/26 09:21:30;;;;;;;1.77;1.00;;;;;;;12.81;79.58;101765.47;4974060;28;20185;-77
2023/05/26 09:23:58;;;;;;;2.80;0.80;;;;;;;13.08;79.65;101762.09;4974141;28;20192;-77
2023/05/26 09:26:31;;;;;;;0.63;0.63;;;;;;;13.34;78.01;101756.28;4974130;28;20264;-77
2023/05/26 09:28:58;;;;;;;0.10;0.07;;;;;;;13.44;75.78;101749.81;4973513;28;20196;-76
2023/05/26 09:31:23;;;;;;;1.20;1.10;;;;;;;13.38;75.30;101746.34;4973545;28;20185;-78
2023/05/26 09:33:49;;;;;;;6.23;2.07;;;;;;;13.39;74.64;101743.28;4956710;28;20560;-77
2023/05/26 09:36:23;;;;;;;0.00;0.00;;;;;;;13.12;73.01;101743.13;4973992;28;20240;-78
2023/05/26 09:38:50;;;;;;;2.43;1.40;;;;;;;13.16;73.46;101752.38;4955782;28;20178;-78
2023/05/26 09:41:20;;;;;;;5.53;2.27;;;;;;;12.80;73.84;101741.91;4973640;28;20177;-78
2023/05/26 09:43:49;;;;;;;0.97;0.87;;;;;;;13.30;74.60;101755.22;4956125;28;20687;-76
2023/05/26 09:46:22;;;;;;;3.03;2.57;;;;;;;13.62;74.51;101758.03;4973794;28;20694;-78
2023/05/26 09:48:51;;;;;;;0.00;0.00;;;;;;;13.56;71.36;101741.94;4955922;28;20214;-78
2023/05/26 09:51:20;;;;;;;3.13;1.03;;;;;;;13.87;71.74;101753.22;4973198;28;20186;-77
2023/05/26 09:53:46;;;;;;;0.00;0.00;;;;;;;14.04;71.73;101755.41;4973609;28;20183;-77
2023/05/26 09:56:11;;;;;;;1.87;0.80;;;;;;;13.73;70.34;101738.63;4973180;28;20561;-78
2023/05/26 09:58:39;;;;;;;0.50;0.50;;;;;;;13.89;72.19;101756.50;4972987;28;20236;-78
2023/05/26 10:01:06;;;;;;;0.73;0.67;;;;;;;13.82;70.91;101747.81;4973308;28;20248;-76
2023/05/26 10:03:31;;;;;;;1.37;1.17;;;;;;;13.86;69.18;101737.84;4973325;28;20698;-77
2023/05/26 10:05:59;;;;;;;1.90;1.30;;;;;;;13.56;68.02;101736.44;4973619;28;20182;-77
2023/05/26 10:08:28;;;;;;;24.13;3.20;;;;;;;13.49;68.32;101725.84;4955340;28;20213;-77
2023/05/26 10:10:53;;;;;;;2.60;1.73;;;;;;;13.65;68.11;101729.16;4973191;28;20206;-78
2023/05/26 10:13:19;;;;;;;0.03;0.03;;;;;;;13.67;67.21;101719.50;4972993;28;20269;-77
2023/05/26 10:15:45;;;;;;;5.20;3.90;;;;;;;14.05;68.59;101724.88;4955417;28;20201;-78
2023/05/26 10:18:11;;;;;;;4.50;1.20;;;;;;;14.44;69.47;101738.16;4972756;28;20713;-75
2023/05/26 10:20:36;;;;;;;2.40;1.83;;;;;;;14.58;68.96;101733.47;4955546;28;20273;-78
2023/05/26 10:23:07;;;;;;;0.00;0.00;;;;;;;14.75;68.19;101734.75;4973091;28;20209;-77
2023/05/26 10:25:35;;;;;;;3.23;2.20;;;;;;;14.62;64.92;101706.19;4955907;28;20192;-78
2023/05/26 10:28:24;;;;;;;0.07;0.07;;;;;;;14.71;65.16;101712.56;4972157;28;20691;-76
2023/05/26 10:30:59;;;;;;;1.23;0.83;;;;;;;15.05;66.48;101720.34;4972479;28;20184;-76
2023/05/26 10:33:45;;;;;;;0.00;0.00;;;;;;;15.12;67.10;101722.66;4972693;28;20216;-76
2023/05/26 10:36:16;;;;;;;0.00;0.00;;;;;;;15.20;65.69;101721.94;4972726;28;20242;-76
2023/05/26 10:38:46;;;;;;;0.00;0.00;;;;;;;15.27;63.92;101707.72;4972695;28;20506;-77
2023/05/26 10:41:28;;;;;;;0.37;0.30;;;;;;;14.48;62.92;101700.69;4972495;28;20186;-76
2023/05/26 10:43:53;;;;;;;4.90;0.97;;;;;;;14.36;63.12;101702.28;4959035;28;20185;-76
2023/05/26 10:46:19;;;;;;;0.00;0.00;;;;;;;14.70;64.80;101721.13;4976126;28;20191;-77
2023/05/26 10:48:58;;;;;;;0.70;0.70;;;;;;;14.98;63.82;101713.63;4976100;28;20334;-77
2023/05/26 10:51:28;;;;;;;1.63;1.60;;;;;;;14.96;61.40;101697.44;4976157;28;20189;-77
2023/05/26 10:53:56;;;;;;;0.87;0.20;;;;;;;15.06;61.74;101699.97;4976294;28;20676;-77
2023/05/26 10:56:34;;;;;;;2.83;1.17;;;;;;;14.58;59.59;101680.38;4975719;28;20652;-76
2023/05/26 10:59:02;;;;;;;1.77;1.67;;;;;;;15.10;61.55;101698.22;4975782;28;20297;-78
2023/05/26 11:01:29;;;;;;;0.17;0.17;;;;;;;15.27;59.77;101680.19;4976259;28;20190;-76
2023/05/26 11:03:56;;;;;;;0.87;0.30;;;;;;;15.40;57.78;101674.63;4976208;28;20265;-76
2023/05/26 11:06:40;;;;;;;2.37;0.80;;;;;;;15.38;57.44;101671.38;4975834;28;20325;-77
2023/05/26 11:09:10;;;;;;;0.00;0.00;;;;;;;15.30;56.88;101674.06;4975711;28;20190;-76
2023/05/26 11:11:38;;;;;;;0.87;0.37;;;;;;;15.39;57.01;101678.50;4975581;28;20652;-77
2023/05/26 11:14:09;;;;;;;0.00;0.00;;;;;;;15.66;58.07;101682.28;4958381;28;20203;-77
2023/05/26 11:16:37;;;;;;;0.00;0.00;;;;;;;15.85;56.92;101679.28;4975484;28;20190;-77
2023/05/26 11:19:12;;;;;;;0.00;0.00;;;;;;;15.67;54.29;101659.09;4957930;28;20249;-78
2023/05/26 11:21:40;;;;;;;7.00;1.00;;;;;;;15.94;56.49;101683.72;4976351;28;20188;-77